Time;durP1;ratioP1;P1;durP2;ratioP2;P2;SDS_P1;SDS_P2;PMS_P1;PMS_P2;Temp;Humidity;BMP_temperature;BMP_pressure;BME280_temperature;BME280_humidity;BME280_pressure;Samples;Min_cycle;Max_cycle;Signal;HPM_P1;HPM_P2
2023/12/23 16:44:05;;;;;;;1.10;1.10;;;;;;;6.83;42.61;100152.41;504046;27;20883;-87
2023/12/23 16:46:34;;;;;;;5.55;2.58;;;;;;;6.80;42.50;100147.44;4781776;30;20461;-87
2023/12/23 16:48:59;;;;;;;7.25;3.40;;;;;;;6.65;42.76;100152.50;4785738;30;20491;-86
2023/12/23 16:51:28;;;;;;;0.80;0.77;;;;;;;6.59;43.00;100147.84;4798970;30;20419;-85
2023/12/23 16:54:01;;;;;;;2.60;2.40;;;;;;;6.51;43.41;100140.72;4789185;29;20452;-85
2023/12/23 16:56:27;;;;;;;1.10;1.10;;;;;;;6.54;43.44;100123.81;4781175;30;20418;-86
2023/12/23 16:58:53;;;;;;;0.68;0.68;;;;;;;6.66;43.15;100119.88;4797648;30;20411;-86
2023/12/23 17:01:20;;;;;;;0.63;0.63;;;;;;;6.72;42.79;100116.63;4791705;30;20431;-86
2023/12/23 17:03:47;;;;;;;2.30;1.63;;;;;;;6.62;43.15;100126.47;4799327;30;20427;-87
2023/12/23 17:06:12;;;;;;;5.25;1.73;;;;;;;6.63;42.97;100131.56;4797599;30;20424;-88
2023/12/23 17:08:39;;;;;;;3.83;2.17;;;;;;;6.63;42.87;100143.94;4778189;30;20488;-86
2023/12/23 17:11:07;;;;;;;1.00;0.90;;;;;;;6.64;43.12;100142.94;4770776;30;20436;-88
2023/12/23 17:13:38;;;;;;;0.50;0.50;;;;;;;6.63;42.98;100144.75;4772640;30;20405;-89
2023/12/23 17:16:07;;;;;;;0.50;0.50;;;;;;;6.61;43.10;100151.13;4787867;30;20423;-86
2023/12/23 17:18:33;;;;;;;0.50;0.50;;;;;;;6.73;42.89;100146.41;4789712;30;20947;-85
2023/12/23 17:21:02;;;;;;;0.20;0.20;;;;;;;6.81;42.59;100155.19;4788014;30;20419;-86
2023/12/23 17:23:28;;;;;;;0.43;0.43;;;;;;;6.88;42.60;100143.03;4790899;30;20491;-86
2023/12/23 17:25:57;;;;;;;0.60;0.60;;;;;;;6.94;42.38;100148.66;4772936;30;20441;-87
2023/12/23 17:28:26;;;;;;;0.47;0.47;;;;;;;6.98;42.38;100142.06;4781156;29;20424;-86
2023/12/23 17:30:55;;;;;;;1.30;1.20;;;;;;;7.00;42.24;100121.63;4795661;30;20439;-87
2023/12/23 17:33:23;;;;;;;0.30;0.25;;;;;;;6.90;42.71;100127.06;4787628;30;20904;-87
2023/12/23 17:35:49;;;;;;;0.85;0.85;;;;;;;6.76;42.91;100120.59;4790167;30;20626;-88
2023/12/23 17:38:17;;;;;;;1.70;0.80;;;;;;;6.87;42.51;100137.91;4789942;30;20447;-87
2023/12/23 17:40:49;;;;;;;0.60;0.60;;;;;;;6.97;42.84;100143.88;4790006;30;20448;-87
2023/12/23 17:43:17;;;;;;;4.40;1.15;;;;;;;7.08;42.48;100166.47;4789742;30;20431;-88
2023/12/23 17:45:46;;;;;;;0.95;0.95;;;;;;;6.65;43.08;100141.94;4786676;30;20444;-87
2023/12/23 17:48:13;;;;;;;0.50;0.50;;;;;;;6.63;43.44;100136.03;4789153;30;20425;-86
2023/12/23 17:50:39;;;;;;;0.95;0.95;;;;;;;6.77;42.74;100116.97;4794409;30;20421;-88
2023/12/23 17:53:07;;;;;;;0.70;0.70;;;;;;;7.06;42.82;100097.28;4794667;30;20414;-86
2023/12/23 17:55:33;;;;;;;0.80;0.80;;;;;;;7.14;42.43;100128.09;4788022;30;20579;-89
2023/12/23 17:58:01;;;;;;;0.70;0.70;;;;;;;7.25;42.49;100109.31;4786144;30;20410;-90
2023/12/23 18:00:38;;;;;;;0.55;0.55;;;;;;;7.32;42.30;100083.13;4790107;30;20408;-89
2023/12/23 18:03:04;;;;;;;1.10;0.90;;;;;;;7.34;42.22;100075.88;4772859;30;20959;-88
2023/12/23 18:05:32;;;;;;;0.52;0.52;;;;;;;7.35;42.35;100078.38;4772973;30;20412;-90
2023/12/23 18:07:58;;;;;;;0.60;0.50;;;;;;;7.27;42.81;100080.97;4771527;30;20416;-89
2023/12/23 18:10:28;;;;;;;1.38;1.25;;;;;;;7.24;43.02;100079.50;4772335;30;20488;-88
2023/12/23 18:12:54;;;;;;;0.90;0.90;;;;;;;7.28;42.75;100065.00;4787631;30;20412;-89
2023/12/23 18:15:23;;;;;;;1.80;1.63;;;;;;;7.34;42.65;100063.53;4787073;30;20428;-89
2023/12/23 18:17:54;;;;;;;2.17;1.70;;;;;;;7.27;42.89;100065.16;4786436;30;20404;-89
2023/12/23 18:20:23;;;;;;;1.23;1.13;;;;;;;7.39;42.57;100057.75;4770754;30;20408;-89
2023/12/23 18:22:51;;;;;;;2.10;1.25;;;;;;;7.44;42.80;100050.19;4771246;30;20516;-88
2023/12/23 18:25:17;;;;;;;1.73;1.40;;;;;;;7.43;42.77;100070.44;4786492;30;20412;-89
2023/12/23 18:27:43;;;;;;;0.37;0.37;;;;;;;7.51;42.42;100076.69;4771803;30;20775;-89
2023/12/23 18:30:09;;;;;;;0.80;0.60;;;;;;;7.46;42.53;100077.22;4786283;30;20438;-88
2023/12/23 18:32:38;;;;;;;1.00;1.00;;;;;;;7.41;42.67;100075.06;4769961;30;20414;-89
2023/12/23 18:35:04;;;;;;;1.30;1.20;;;;;;;7.35;42.91;100096.81;4784540;30;20788;-89
2023/12/23 18:37:30;;;;;;;1.27;1.20;;;;;;;7.31;43.18;100089.38;4770506;30;20410;-88
2023/12/23 18:39:59;;;;;;;0.45;0.45;;;;;;;7.15;43.85;100080.50;4783052;30;20422;-89
2023/12/23 18:42:27;;;;;;;1.10;1.00;;;;;;;6.88;45.25;100069.25;4783811;30;20474;-86
2023/12/23 18:44:53;;;;;;;0.30;0.30;;;;;;;7.03;45.00;100074.69;4783984;29;20468;-89
2023/12/23 18:47:18;;;;;;;0.40;0.40;;;;;;;7.10;44.39;100074.88;4784293;30;20488;-89
2023/12/23 18:49:45;;;;;;;0.30;0.30;;;;;;;7.00;44.86;100082.94;4783444;30;20822;-87
2023/12/23 18:52:11;;;;;;;0.93;0.80;;;;;;;7.17;44.60;100094.34;4784467;30;20564;-87
2023/12/23 18:54:37;;;;;;;0.40;0.40;;;;;;;7.25;44.33;100064.50;4769297;30;20422;-88
2023/12/23 18:57:06;;;;;;;0.40;0.40;;;;;;;7.29;44.03;100068.47;4770052;30;20417;-89
2023/12/23 18:59:32;;;;;;;0.60;0.60;;;;;;;7.31;43.98;100076.22;4784948;30;20410;-88
2023/12/23 19:01:58;;;;;;;0.60;0.60;;;;;;;7.35;44.18;100085.47;4784887;30;20720;-88
2023/12/23 19:04:28;;;;;;;0.80;0.70;;;;;;;7.39;43.69;100090.22;4784724;30;20451;-87
2023/12/23 19:06:54;;;;;;;0.30;0.30;;;;;;;7.51;43.69;100103.91;4786657;30;20899;-87
2023/12/23 19:09:23;;;;;;;0.70;0.70;;;;;;;7.62;43.77;100103.56;4783932;30;20495;-88
2023/12/23 19:11:54;;;;;;;0.50;0.50;;;;;;;7.64;43.72;100101.59;4783412;30;20825;-88
2023/12/23 19:14:22;;;;;;;0.60;0.40;;;;;;;7.61;43.74;100109.81;4770269;30;20414;-87
2023/12/23 19:16:50;;;;;;;0.98;0.93;;;;;;;7.64;44.18;100116.59;4769404;30;20414;-88
2023/12/23 19:19:16;;;;;;;1.00;0.80;;;;;;;7.48;44.56;100104.25;4785577;30;20418;-88
2023/12/23 19:21:47;;;;;;;0.60;0.60;;;;;;;7.28;45.14;100117.72;4786398;30;20418;-88
2023/12/23 19:24:13;;;;;;;0.28;0.28;;;;;;;7.34;45.04;100112.81;4786503;30;20499;-88
2023/12/23 19:26:39;;;;;;;0.30;0.30;;;;;;;7.44;44.82;100127.47;4787124;30;20437;-89
2023/12/23 19:29:07;;;;;;;0.50;0.50;;;;;;;7.55;44.22;100094.69;4790338;30;20486;-90
2023/12/23 19:31:37;;;;;;;0.45;0.43;;;;;;;7.53;44.46;100095.84;4779440;30;20402;-89
2023/12/23 19:34:05;;;;;;;0.20;0.20;;;;;;;7.49;44.66;100105.91;4797992;30;20485;-87
2023/12/23 19:36:34;;;;;;;0.40;0.40;;;;;;;7.58;44.40;100111.97;4782699;30;20417;-90
2023/12/23 19:38:59;;;;;;;0.77;0.52;;;;;;;7.53;44.85;100096.66;4777920;30;20418;-87
2023/12/23 19:41:25;;;;;;;0.70;0.70;;;;;;;7.46;45.00;100099.13;4789703;30;20418;-92
2023/12/23 19:43:53;;;;;;;0.80;0.80;;;;;;;7.37;45.34;100094.03;4787030;30;20406;-88
2023/12/23 19:46:21;;;;;;;0.88;0.60;;;;;;;7.21;45.82;100097.47;4772093;30;20934;-89
2023/12/23 19:48:50;;;;;;;1.33;1.23;;;;;;;7.22;45.76;100084.13;4772051;30;20812;-88
2023/12/23 19:51:20;;;;;;;0.63;0.57;;;;;;;7.21;45.79;100092.19;4790107;30;20438;-89
2023/12/23 19:53:46;;;;;;;1.30;0.93;;;;;;;7.34;45.94;100089.06;4773207;30;20896;-84
2023/12/23 19:56:15;;;;;;;0.30;0.30;;;;;;;7.50;45.30;100086.44;4791837;30;20440;-90
2023/12/23 19:58:40;;;;;;;0.40;0.40;;;;;;;7.63;45.11;100085.94;4775170;30;20504;-88
2023/12/23 20:01:09;;;;;;;0.60;0.60;;;;;;;7.66;45.15;100073.22;4772427;30;20501;-89
2023/12/23 20:03:54;;;;;;;0.30;0.30;;;;;;;7.69;45.23;100074.72;4789515;29;20417;-93
2023/12/23 21:15:07;;;;;;;5.25;2.60;;;;;;;11.29;42.45;100088.63;1689096;24;20414;-87
2023/12/23 21:17:34;;;;;;;0.40;0.37;;;;;;;11.32;42.25;100095.38;4795079;29;20460;-91
2023/12/23 21:20:03;;;;;;;0.93;0.75;;;;;;;11.39;41.97;100093.59;4801219;29;20535;-92
2023/12/23 21:22:29;;;;;;;0.25;0.25;;;;;;;11.55;41.98;100099.66;4787875;29;20704;-89
2023/12/23 21:24:56;;;;;;;0.25;0.25;;;;;;;11.66;41.66;100081.38;4798886;29;20495;-89
2023/12/23 21:27:37;;;;;;;0.77;0.47;;;;;;;11.62;41.15;100096.03;4797573;29;20420;-90
2023/12/23 21:30:07;;;;;;;1.30;0.52;;;;;;;11.70;41.20;100110.19;4804848;29;20420;-92
2023/12/23 21:32:35;;;;;;;0.70;0.55;;;;;;;11.77;41.20;100095.94;4805206;29;20890;-94
2023/12/23 21:35:01;;;;;;;1.23;0.80;;;;;;;11.86;40.96;100097.44;4785290;29;20404;-92
2023/12/23 21:37:28;;;;;;;1.15;0.75;;;;;;;11.94;40.77;100114.28;4805187;29;20494;-92
2023/12/23 21:39:58;;;;;;;0.50;0.40;;;;;;;12.08;40.45;100105.38;4804668;29;20428;-92
2023/12/23 21:42:30;;;;;;;0.40;0.40;;;;;;;12.18;40.43;100127.13;4811652;29;20412;-93
2023/12/23 21:45:03;;;;;;;0.40;0.30;;;;;;;12.17;40.37;100122.00;4788130;30;20472;-93
2023/12/23 21:47:29;;;;;;;0.30;0.30;;;;;;;12.07;40.05;100137.47;4799836;29;20408;-90
2023/12/23 21:49:55;;;;;;;0.40;0.28;;;;;;;12.20;40.32;100137.56;4805369;29;20422;-91
2023/12/23 21:52:21;;;;;;;0.25;0.25;;;;;;;12.10;40.26;100131.75;4797453;29;20420;-94
2023/12/23 21:54:47;;;;;;;0.63;0.50;;;;;;;12.16;40.06;100131.81;4796491;29;20402;-92
2023/12/23 21:57:13;;;;;;;0.80;0.50;;;;;;;12.28;39.75;100142.72;4789718;29;20413;-89
2023/12/23 21:59:41;;;;;;;0.30;0.30;;;;;;;12.44;39.44;100154.84;4804230;29;20411;-90
2023/12/23 22:02:09;;;;;;;0.88;0.50;;;;;;;12.50;38.94;100145.31;4809695;29;20441;-86
2023/12/23 22:04:40;;;;;;;0.20;0.20;;;;;;;12.66;38.70;100150.28;4807752;29;20418;-91
2023/12/23 22:07:06;;;;;;;0.20;0.20;;;;;;;12.63;38.29;100145.34;4813080;29;20418;-92
2023/12/23 22:09:34;;;;;;;0.20;0.20;;;;;;;12.72;38.27;100141.50;4796769;29;20504;-90
2023/12/23 22:12:00;;;;;;;0.15;0.15;;;;;;;12.66;38.08;100160.09;4796642;29;20414;-88
2023/12/23 22:14:25;;;;;;;0.10;0.10;;;;;;;12.74;38.19;100165.25;4776997;29;20412;-87
2023/12/23 22:16:54;;;;;;;1.00;0.40;;;;;;;12.80;38.23;100157.31;4788508;29;20430;-89
2023/12/23 22:19:20;;;;;;;0.22;0.20;;;;;;;13.01;37.58;100182.97;4786952;29;20413;-89
2023/12/23 22:21:50;;;;;;;0.10;0.10;;;;;;;13.11;37.21;100182.59;4785853;30;20478;-88
2023/12/23 22:24:16;;;;;;;0.20;0.20;;;;;;;13.10;37.33;100175.63;4789999;29;20503;-88
2023/12/23 22:26:44;;;;;;;0.10;0.10;;;;;;;13.27;37.73;100199.22;4785897;30;20819;-90
2023/12/23 22:29:13;;;;;;;0.20;0.20;;;;;;;13.27;37.76;100191.22;4786999;30;20499;-88
2023/12/23 22:31:41;;;;;;;0.20;0.20;;;;;;;13.21;37.71;100198.19;4797769;29;20979;-88
2023/12/23 22:34:10;;;;;;;0.28;0.28;;;;;;;13.17;37.82;100194.28;4792474;29;20924;-89
2023/12/23 22:36:43;;;;;;;0.70;0.30;;;;;;;13.28;37.82;100207.00;4797281;29;20996;-89
2023/12/23 22:39:08;;;;;;;0.20;0.20;;;;;;;13.20;37.63;100207.19;4786508;30;20433;-90
2023/12/23 22:41:34;;;;;;;0.20;0.20;;;;;;;13.05;37.36;100191.34;4788179;30;20503;-88
2023/12/23 22:44:03;;;;;;;0.50;0.40;;;;;;;12.79;38.11;100200.06;4792258;29;20423;-90
2023/12/23 22:46:28;;;;;;;0.40;0.40;;;;;;;12.93;37.83;100185.00;4781854;30;20450;-89
2023/12/23 22:48:54;;;;;;;0.10;0.10;;;;;;;12.91;38.01;100205.63;4791094;29;20459;-88
2023/12/23 22:51:23;;;;;;;0.10;0.10;;;;;;;12.87;37.73;100193.75;4788523;29;20812;-88
2023/12/23 22:53:48;;;;;;;0.20;0.20;;;;;;;12.97;37.84;100231.47;4776908;29;20567;-88
2023/12/23 22:56:14;;;;;;;0.20;0.20;;;;;;;12.88;37.77;100196.22;4785092;30;20507;-88
2023/12/23 22:58:40;;;;;;;0.40;0.30;;;;;;;12.89;37.84;100186.38;4802706;29;20484;-89
2023/12/23 23:01:13;;;;;;;0.10;0.10;;;;;;;12.87;37.81;100202.53;4783368;30;20402;-87
2023/12/23 23:03:42;;;;;;;0.40;0.20;;;;;;;12.89;38.10;100208.50;4784619;30;20543;-87
2023/12/23 23:06:08;;;;;;;0.85;0.52;;;;;;;13.03;38.00;100203.22;4787462;30;20970;-88
2023/12/23 23:08:37;;;;;;;0.10;0.10;;;;;;;12.87;38.05;100207.88;4780723;29;20430;-88
2023/12/23 23:11:03;;;;;;;0.35;0.35;;;;;;;12.95;38.19;100220.19;4797018;29;20466;-87
2023/12/23 23:13:29;;;;;;;0.10;0.10;;;;;;;12.92;38.28;100212.59;4803089;29;20762;-88
2023/12/23 23:15:59;;;;;;;0.10;0.10;;;;;;;12.67;38.67;100230.88;4791680;29;20944;-88
2023/12/23 23:18:25;;;;;;;0.70;0.30;;;;;;;12.72;38.52;100229.28;4796999;29;20423;-89
2023/12/23 23:20:51;;;;;;;0.10;0.10;;;;;;;12.81;38.76;100244.06;4786275;30;20408;-88
2023/12/23 23:23:17;;;;;;;0.68;0.20;;;;;;;12.87;38.56;100250.41;4783351;30;20414;-87
2023/12/23 23:25:42;;;;;;;0.40;0.40;;;;;;;12.87;38.37;100254.94;4784160;29;20552;-88
2023/12/23 23:28:11;;;;;;;0.30;0.30;;;;;;;12.69;38.67;100250.13;4788699;29;20404;-89
2023/12/23 23:30:37;;;;;;;0.20;0.20;;;;;;;12.77;38.65;100269.41;4786274;29;20463;-89
2023/12/23 23:33:03;;;;;;;0.40;0.40;;;;;;;12.98;38.51;100254.38;4786776;29;20408;-88
2023/12/23 23:35:29;;;;;;;0.17;0.17;;;;;;;12.70;38.95;100278.38;4791342;29;20474;-89
2023/12/23 23:37:55;;;;;;;0.10;0.10;;;;;;;12.48;38.58;100291.72;4799960;29;20444;-89
2023/12/23 23:40:25;;;;;;;0.10;0.10;;;;;;;12.53;38.77;100277.81;4801897;29;20420;-88
2023/12/23 23:42:51;;;;;;;0.30;0.20;;;;;;;12.58;38.82;100299.34;4769114;29;20421;-87
2023/12/23 23:45:16;;;;;;;0.20;0.20;;;;;;;12.57;39.13;100289.75;4791875;29;20426;-88
2023/12/23 23:47:42;;;;;;;0.20;0.20;;;;;;;12.71;38.64;100282.66;4775276;30;20758;-88
2023/12/23 23:50:08;;;;;;;0.10;0.10;;;;;;;12.93;38.21;100292.22;4784711;29;20430;-88
2023/12/23 23:52:40;;;;;;;0.20;0.20;;;;;;;12.78;38.37;100294.16;4792665;29;20464;-86
2023/12/23 23:55:07;;;;;;;0.10;0.10;;;;;;;12.72;38.95;100297.59;4806095;29;20428;-88
2023/12/23 23:57:35;;;;;;;0.25;0.25;;;;;;;12.63;39.11;100294.28;4796207;29;20416;-88
